URWW Airport Information

Runway Information
Runway 08 Length 1595 ft width 350 ft
Elevation 0 ft Threshold 0 ft Heading 84
Runway 26 Length 1595 ft Width 350 ft
Elevation 0 ft Threshold 0 ft Heading 264
Runway 11 Length 8101 ft width 161 ft
Elevation 430 ft Threshold 0 ft Heading 120
Runway 29 Length 8101 ft Width 161 ft
Elevation 482 ft Threshold 0 ft Heading 300
Runway 11R Length 5575 ft width 330 ft
Elevation 0 ft Threshold 0 ft Heading 120
Runway 29L Length 5575 ft Width 330 ft
Elevation 0 ft Threshold 0 ft Heading 300
Airport Frequencies
Type APP Name VOLGOGRAD Frequency 125.3 MHZ
Type ATIS Name VOLOGRAD A Frequency 132.8 MHZ
Type GCA Name GCA Frequency 128 MHZ
Type GND Name GND Frequency 119 MHZ
Type RDR Name ASR Frequency 122 MHZ
Type TWR Name TWR Frequency 128 MHZ
Airport Navaids
Type NDB Name Gumrak Frequency 325 KHZ
Type NDB Name Gumrak Frequency 325 KHZ
Airport Weather Information & NOTAM
ADDS - METARS form results

(0248 UTC 22 January 2019)
Data provider http://aviationweather.gov/metar/data/
 
METAR text: URWW 220230Z 36008MPS 9999 BKN009 M08/M10 Q1016 R06/720237 NOSIG
Conditions at: URWW (VOLGOGRAD/GUMRAK, RU) observed 0230 UTC 22 January 2019
Temperature: -8.0°C (18°F)
Dewpoint: -10.0°C (14°F) [RH = 85%]
Pressure (altimeter): 30.00 inches Hg (1016.0 mb)
Winds: from the N (360 degrees) at 18 MPH (16 knots; 8.2 m/s)
Visibility: 6 or more miles (10+ km)
Ceiling: 900 feet AGL
Clouds: broken clouds at 900 feet AGL
Weather: no significant weather observed at this time

METAR text: URWW 220200Z 36008MPS 9999 BKN008 M08/M10 Q1015 R06/720237 NOSIG
Conditions at: URWW (VOLGOGRAD/GUMRAK, RU) observed 0200 UTC 22 January 2019
Temperature: -8.0°C (18°F)
Dewpoint: -10.0°C (14°F) [RH = 85%]
Pressure (altimeter): 29.97 inches Hg (1015.0 mb)
Winds: from the N (360 degrees) at 18 MPH (16 knots; 8.2 m/s)
Visibility: 6 or more miles (10+ km)
Ceiling: 800 feet AGL
Clouds: broken clouds at 800 feet AGL
Weather: no significant weather observed at this time

Forecast for: URWW (VOLGOGRAD/GUMRAK, RU)
Text: TAF URWW 220200Z 2203/2212 33006G11MPS 9999 BKN011
Forecast period: 0300 to 1200 UTC 22 January 2019
Forecast type: FROM: standard forecast or significant change
Winds: from the NNW (330 degrees) at 14 MPH (12 knots; 6.2 m/s)
gusting to 24 MPH (21 knots; 10.8 m/s)
Visibility: 6 or more miles 10+ km)
Ceiling: 1100 feet AGL
Clouds: broken clouds at 1100 feet AGL
Weather: no significant weather forecast for this period
Text: TEMPO 2203/2209 36008G14MPS 3100 -SHSN BLSN BKN005 BKN020CB
Forecast period: 0300 to 0900 UTC 22 January 2019
Forecast type: TEMPORARY: The following changes expected for less than half the time period
Winds: from the N (360 degrees) at 18 MPH (16 knots; 8.2 m/s)
gusting to 31 MPH (27 knots; 13.9 m/s)
Visibility: 1.93 miles (3.11 km)
Ceiling: 500 feet AGL
Clouds: broken clouds at 500 feet AGL
broken clouds at 2000 feet AGL
Weather: -SHSN BLSN  (light snow showers, blowing snow)